Skip Navigation Links Skip Navigation Links

Current Weather

Leland, Ill.

For information only: do not use for flight planning or navigation.
Latest weather
Observation time Tuesday, November 24, 2020 8:35 PM CST
Local time Tuesday, November 24, 2020 8:56 PM CST
Flight conditions Visual Meteorological Conditions
Winds
Wind speed calm
Visibility 10 mi.
Sky condition
Ceiling unlimited
Cloud layer few clouds 3,400 ft.
Cloud layer scattered clouds 4,300 ft.
Temperature 54°F
Dewpoint 37°F
Altimeter 30.12 in.Hg
Derived measurements
Relative humidity 54%
Density altitude 209 ft.
Remarks
Fully automated report.
Automated weather observing station with precipitation discriminator.
METAR KE16 250235Z AUTO 00000KT 10SM FEW034 SCT043 12/03 A3012 RMK AO2

Settings

Location code

InnerDrive.Weather 4.0.6770.0 Release CLR 4.0.30319.42000
Copyright ©2018 Inner Drive Technology. All rights reserved. Portions Copyright ©1986-2018 David Braverman.

Find weather

Site navigation


Skip Navigation Links

Place info

Page info

PayPal - The safer, easier way to pay online!

Return home.

Copyright ©2020 Inner Drive Technology. Purveyors of fine, hand-crafted computer software. Page printed 2020-11-25T02:56:01 UTC.